Time;durP1;ratioP1;P1;durP2;ratioP2;P2;SDS_P1;SDS_P2;PMS_P1;PMS_P2;Temp;Humidity;BMP_temperature;BMP_pressure;BME280_temperature;BME280_humidity;BME280_pressure;Samples;Min_cycle;Max_cycle;Signal;HPM_P1;HPM_P2
2021/05/14 00:01:19;;;;;;;7.93;5.57;;;;;;;;;;4925523;28;20040;-61
2021/05/14 00:03:44;;;;;;;6.90;4.55;;;;;;;;;;4925908;28;20070;-59
2021/05/14 00:06:10;;;;;;;11.15;4.78;;;;;;;;;;4912716;28;20091;-60
2021/05/14 00:08:35;;;;;;;7.53;4.40;;;;;;;;;;4928466;28;20035;-59
2021/05/14 00:11:03;;;;;;;8.05;4.65;;;;;;;;;;4925758;28;20036;-61
2021/05/14 00:13:28;;;;;;;6.05;4.60;;;;;;;;;;4927358;28;20070;-61
2021/05/14 00:15:54;;;;;;;11.57;5.70;;;;;;;;;;4927191;28;20635;-60
2021/05/14 00:18:25;;;;;;;8.18;5.07;;;;;;;;;;4913573;29;20067;-60
2021/05/14 00:20:54;;;;;;;9.27;4.97;;;;;;;;;;4925592;28;22296;-61
2021/05/14 00:23:25;;;;;;;7.95;5.05;;;;;;;;;;4922893;28;21079;-61
2021/05/14 00:25:50;;;;;;;8.07;4.75;;;;;;;;;;4907299;28;20035;-60
2021/05/14 00:28:16;;;;;;;7.78;4.90;;;;;;;;;;4926318;28;20028;-61
2021/05/14 00:30:43;;;;;;;6.82;4.72;;;;;;;;;;4923403;28;20188;-61
2021/05/14 00:33:09;;;;;;;10.02;5.47;;;;;;;;;;4916239;28;20166;-62
2021/05/14 00:35:34;;;;;;;8.73;5.07;;;;;;;;;;4910928;29;20070;-61
2021/05/14 00:38:03;;;;;;;9.38;5.10;;;;;;;;;;4911037;28;20467;-61
2021/05/14 00:40:29;;;;;;;10.63;5.47;;;;;;;;;;4927176;28;20039;-61
2021/05/14 00:42:57;;;;;;;9.18;4.25;;;;;;;;;;4928304;28;20033;-60
2021/05/14 00:45:22;;;;;;;8.85;4.72;;;;;;;;;;4909500;28;22003;-60
2021/05/14 00:47:50;;;;;;;9.77;4.55;;;;;;;;;;4926487;28;20042;-61
2021/05/14 00:50:22;;;;;;;8.70;3.45;;;;;;;;;;4925940;28;20044;-60
2021/05/14 00:52:48;;;;;;;7.90;4.80;;;;;;;;;;4923459;28;20583;-59
2021/05/14 00:55:15;;;;;;;12.27;4.45;;;;;;;;;;4928003;28;22278;-60
2021/05/14 00:57:41;;;;;;;9.30;4.82;;;;;;;;;;4926343;28;20094;-61
2021/05/14 01:00:09;;;;;;;8.70;4.63;;;;;;;;;;4924979;28;20050;-61
2021/05/14 01:02:35;;;;;;;7.03;4.65;;;;;;;;;;4926661;28;20023;-62
2021/05/14 01:05:00;;;;;;;6.35;4.50;;;;;;;;;;4928480;28;20051;-62
2021/05/14 01:07:26;;;;;;;8.27;4.93;;;;;;;;;;4927236;28;20035;-61
2021/05/14 01:09:55;;;;;;;6.95;3.90;;;;;;;;;;4930674;28;20035;-61
2021/05/14 01:12:20;;;;;;;11.50;4.50;;;;;;;;;;4927921;28;20126;-62
2021/05/14 01:14:46;;;;;;;7.72;4.55;;;;;;;;;;4926298;28;20031;-61
2021/05/14 01:17:15;;;;;;;7.80;4.93;;;;;;;;;;4926893;28;20075;-60
2021/05/14 01:19:41;;;;;;;12.15;4.93;;;;;;;;;;4925411;28;20138;-60
2021/05/14 01:22:09;;;;;;;7.50;4.78;;;;;;;;;;4926085;28;20039;-61
2021/05/14 01:24:37;;;;;;;7.43;4.50;;;;;;;;;;4927105;28;20138;-60
2021/05/14 01:27:03;;;;;;;12.27;4.00;;;;;;;;;;4943525;28;20113;-61
2021/05/14 01:29:29;;;;;;;7.18;4.63;;;;;;;;;;4927965;28;20134;-61
2021/05/14 01:31:54;;;;;;;9.95;4.60;;;;;;;;;;4924741;28;20034;-60
2021/05/14 01:34:20;;;;;;;11.38;5.22;;;;;;;;;;4932343;28;20043;-60
2021/05/14 01:36:45;;;;;;;10.48;4.78;;;;;;;;;;4927318;28;20135;-60
2021/05/14 01:39:23;;;;;;;12.15;4.65;;;;;;;;;;4928249;28;20084;-60
2021/05/14 01:41:48;;;;;;;7.55;4.78;;;;;;;;;;4914699;28;20028;-59
2021/05/14 01:44:14;;;;;;;11.95;5.05;;;;;;;;;;4929857;28;20514;-60
2021/05/14 01:46:40;;;;;;;12.30;4.80;;;;;;;;;;4927650;28;20046;-60
2021/05/14 01:49:06;;;;;;;8.13;3.90;;;;;;;;;;4913563;28;20499;-59
2021/05/14 01:51:34;;;;;;;8.00;3.88;;;;;;;;;;4928530;28;20087;-62
2021/05/14 01:54:00;;;;;;;8.40;3.80;;;;;;;;;;4937338;28;20450;-60
2021/05/14 01:56:26;;;;;;;8.45;3.15;;;;;;;;;;4925944;28;20142;-60
2021/05/14 01:58:57;;;;;;;5.28;3.40;;;;;;;;;;4928844;28;20361;-60
2021/05/14 02:01:25;;;;;;;6.43;3.15;;;;;;;;;;4925714;28;20174;-60
2021/05/14 02:03:54;;;;;;;7.30;2.97;;;;;;;;;;4928902;28;20036;-61
2021/05/14 02:06:20;;;;;;;6.30;2.75;;;;;;;;;;4925819;28;20448;-60
2021/05/14 02:08:46;;;;;;;10.52;3.30;;;;;;;;;;4913646;28;20054;-59
2021/05/14 02:11:11;;;;;;;4.60;2.78;;;;;;;;;;4925984;28;20038;-60
2021/05/14 02:13:38;;;;;;;9.73;3.60;;;;;;;;;;4927323;28;20031;-60
2021/05/14 02:16:08;;;;;;;7.60;3.47;;;;;;;;;;4913915;28;20039;-61
2021/05/14 02:18:37;;;;;;;7.72;3.42;;;;;;;;;;4926161;28;20051;-60
2021/05/14 02:21:03;;;;;;;9.65;3.45;;;;;;;;;;4928196;28;20067;-61
2021/05/14 02:23:29;;;;;;;10.73;2.90;;;;;;;;;;4913060;28;20524;-60
2021/05/14 02:25:57;;;;;;;5.60;3.28;;;;;;;;;;4924870;28;20509;-60
2021/05/14 02:28:24;;;;;;;6.32;3.53;;;;;;;;;;4926751;28;20034;-60
2021/05/14 02:30:49;;;;;;;6.85;3.75;;;;;;;;;;4941769;28;20039;-60
2021/05/14 02:33:16;;;;;;;6.45;4.10;;;;;;;;;;4926727;28;20045;-61
2021/05/14 02:35:44;;;;;;;5.65;2.88;;;;;;;;;;4928540;28;20117;-61
2021/05/14 02:38:15;;;;;;;6.78;3.72;;;;;;;;;;4926420;28;20169;-61
2021/05/14 02:40:40;;;;;;;10.77;4.03;;;;;;;;;;4923342;28;20035;-60
2021/05/14 02:43:06;;;;;;;7.60;2.38;;;;;;;;;;4927139;28;20436;-60
2021/05/14 02:45:33;;;;;;;8.90;3.30;;;;;;;;;;4928429;28;20059;-61
2021/05/14 02:48:00;;;;;;;7.30;3.53;;;;;;;;;;4930238;28;21918;-60
2021/05/14 02:50:26;;;;;;;10.07;3.33;;;;;;;;;;4942084;28;20376;-61
2021/05/14 02:52:54;;;;;;;8.95;3.28;;;;;;;;;;4915201;29;20039;-60
2021/05/14 02:55:25;;;;;;;11.73;4.47;;;;;;;;;;4911061;28;20039;-61
2021/05/14 02:57:52;;;;;;;6.85;2.97;;;;;;;;;;4901920;29;20090;-60
2021/05/14 03:00:18;;;;;;;10.13;2.70;;;;;;;;;;4925565;28;20036;-61
2021/05/14 03:02:44;;;;;;;11.35;3.47;;;;;;;;;;4925252;28;20047;-60
2021/05/14 03:05:12;;;;;;;9.32;2.67;;;;;;;;;;4925084;28;20031;-62
2021/05/14 03:07:38;;;;;;;7.00;2.83;;;;;;;;;;4927339;28;20571;-61
2021/05/14 03:10:06;;;;;;;8.85;3.30;;;;;;;;;;4916152;28;20758;-61
2021/05/14 03:12:32;;;;;;;11.35;3.42;;;;;;;;;;4913599;29;20047;-60
2021/05/14 03:14:57;;;;;;;13.25;2.90;;;;;;;;;;4926316;28;20035;-60
2021/05/14 03:17:25;;;;;;;7.07;2.70;;;;;;;;;;4942467;28;20047;-62
2021/05/14 03:19:51;;;;;;;7.07;3.13;;;;;;;;;;4924565;28;20752;-60
2021/05/14 03:22:17;;;;;;;4.30;2.88;;;;;;;;;;4909828;29;20039;-62
2021/05/14 03:24:45;;;;;;;8.10;2.88;;;;;;;;;;4918871;28;20040;-60
2021/05/14 03:27:11;;;;;;;4.75;2.95;;;;;;;;;;4941169;28;20130;-61
2021/05/14 03:29:39;;;;;;;9.52;3.15;;;;;;;;;;4929311;28;20037;-60
2021/05/14 03:32:05;;;;;;;5.05;3.03;;;;;;;;;;4927816;28;20142;-60
2021/05/14 03:34:31;;;;;;;8.00;3.17;;;;;;;;;;4928135;28;20050;-60
2021/05/14 03:36:57;;;;;;;6.28;2.83;;;;;;;;;;4918548;28;20050;-61
2021/05/14 03:39:27;;;;;;;7.20;3.17;;;;;;;;;;4926554;28;20063;-60
2021/05/14 03:42:05;;;;;;;5.50;2.75;;;;;;;;;;4926600;28;20126;-60
2021/05/14 03:44:31;;;;;;;10.50;3.03;;;;;;;;;;4926513;28;20114;-61
2021/05/14 03:46:58;;;;;;;8.27;3.10;;;;;;;;;;4926528;28;20042;-61
2021/05/14 03:49:24;;;;;;;12.60;3.17;;;;;;;;;;4927033;28;20044;-62
2021/05/14 03:51:49;;;;;;;7.25;3.08;;;;;;;;;;4924993;28;22116;-60
2021/05/14 03:54:15;;;;;;;4.03;3.08;;;;;;;;;;4930182;28;20023;-62
2021/05/14 03:56:40;;;;;;;9.77;3.42;;;;;;;;;;4928053;28;20040;-61
2021/05/14 03:59:07;;;;;;;11.07;3.55;;;;;;;;;;4926764;28;20027;-62
2021/05/14 04:01:33;;;;;;;8.43;3.13;;;;;;;;;;4928675;28;20066;-61
2021/05/14 04:04:04;;;;;;;6.07;2.78;;;;;;;;;;4940933;28;20038;-60
2021/05/14 04:06:29;;;;;;;14.25;3.30;;;;;;;;;;4912781;28;20031;-59
2021/05/14 04:08:55;;;;;;;7.90;3.22;;;;;;;;;;4924028;28;20026;-60
2021/05/14 04:16:50;;;;;;;7.85;3.67;;;;;;;;;;4925191;28;20047;-62
2021/05/14 04:19:18;;;;;;;10.70;3.92;;;;;;;;;;4941829;28;20031;-61
2021/05/14 04:21:47;;;;;;;9.93;3.13;;;;;;;;;;4924259;28;20031;-61
2021/05/14 04:24:19;;;;;;;6.30;2.80;;;;;;;;;;4926099;28;20039;-59
2021/05/14 04:26:48;;;;;;;11.13;2.78;;;;;;;;;;4922592;28;20031;-62
2021/05/14 04:29:15;;;;;;;10.70;3.65;;;;;;;;;;4914255;29;20039;-61
2021/05/14 04:31:43;;;;;;;8.27;3.08;;;;;;;;;;4931017;28;20126;-60
2021/05/14 04:34:11;;;;;;;13.57;3.20;;;;;;;;;;4921636;28;20050;-61
2021/05/14 04:36:37;;;;;;;9.85;2.92;;;;;;;;;;4925207;28;20570;-61
2021/05/14 04:39:02;;;;;;;6.15;2.70;;;;;;;;;;4926974;28;20170;-61
2021/05/14 04:41:33;;;;;;;7.97;3.28;;;;;;;;;;4937581;28;20043;-60
2021/05/14 04:43:59;;;;;;;9.23;3.20;;;;;;;;;;4925438;28;20042;-61
2021/05/14 04:46:27;;;;;;;5.75;2.33;;;;;;;;;;4908055;29;20984;-61
2021/05/14 04:48:52;;;;;;;8.63;3.47;;;;;;;;;;4911970;28;20035;-61
2021/05/14 04:51:19;;;;;;;9.10;2.88;;;;;;;;;;4923618;28;20051;-61
2021/05/14 04:53:46;;;;;;;5.95;2.38;;;;;;;;;;4928773;28;20040;-61
2021/05/14 04:56:14;;;;;;;7.95;2.65;;;;;;;;;;4922756;28;20668;-61
2021/05/14 04:58:40;;;;;;;7.30;2.05;;;;;;;;;;4927852;28;20434;-63
2021/05/14 05:01:07;;;;;;;13.23;2.95;;;;;;;;;;4945628;28;20121;-61
2021/05/14 05:03:32;;;;;;;9.27;2.78;;;;;;;;;;4933252;28;20073;-61
2021/05/14 05:06:04;;;;;;;4.40;2.35;;;;;;;;;;4918621;28;20039;-62
2021/05/14 05:08:29;;;;;;;8.85;2.78;;;;;;;;;;4932838;28;20031;-61
2021/05/14 05:10:55;;;;;;;11.25;2.25;;;;;;;;;;4917462;28;20177;-61
2021/05/14 05:13:20;;;;;;;8.00;2.80;;;;;;;;;;4928513;28;20051;-65
2021/05/14 05:15:46;;;;;;;12.93;3.60;;;;;;;;;;4930328;28;20035;-61
2021/05/14 05:18:11;;;;;;;5.80;2.40;;;;;;;;;;4929388;28;20045;-60
2021/05/14 05:20:37;;;;;;;5.82;2.58;;;;;;;;;;4928766;28;21979;-64
2021/05/14 05:23:05;;;;;;;9.93;2.85;;;;;;;;;;4928950;28;20126;-62
2021/05/14 05:25:33;;;;;;;8.70;2.90;;;;;;;;;;4942892;28;20143;-62
2021/05/14 05:28:03;;;;;;;9.85;2.85;;;;;;;;;;4927853;28;20032;-60
2021/05/14 05:30:29;;;;;;;5.75;2.40;;;;;;;;;;4929482;28;20032;-62
2021/05/14 05:32:54;;;;;;;6.20;2.78;;;;;;;;;;4902765;29;20082;-61
2021/05/14 05:35:20;;;;;;;9.70;2.92;;;;;;;;;;4914808;29;22000;-62
2021/05/14 05:37:49;;;;;;;11.73;3.13;;;;;;;;;;4927644;28;20035;-62
2021/05/14 05:40:17;;;;;;;9.05;3.30;;;;;;;;;;4943197;28;20035;-60
2021/05/14 05:42:43;;;;;;;12.00;3.15;;;;;;;;;;4931341;28;20090;-60
2021/05/14 05:45:10;;;;;;;9.20;2.45;;;;;;;;;;4930103;28;20035;-61
2021/05/14 05:47:36;;;;;;;5.88;2.60;;;;;;;;;;4930590;28;20042;-60
2021/05/14 05:50:03;;;;;;;9.18;2.70;;;;;;;;;;4930962;28;20683;-61
2021/05/14 05:52:30;;;;;;;8.93;3.05;;;;;;;;;;4928335;28;20035;-61
2021/05/14 05:54:59;;;;;;;8.38;3.45;;;;;;;;;;4930141;28;20066;-61
2021/05/14 05:57:25;;;;;;;13.32;4.13;;;;;;;;;;4928067;28;20468;-63
2021/05/14 05:59:54;;;;;;;13.27;3.65;;;;;;;;;;4933147;28;20039;-62
2021/05/14 06:02:24;;;;;;;9.10;4.13;;;;;;;;;;4929933;28;20027;-61
2021/05/14 06:04:50;;;;;;;9.68;4.43;;;;;;;;;;4918017;29;20066;-61
2021/05/14 06:07:15;;;;;;;7.25;3.45;;;;;;;;;;4915275;28;20118;-60
2021/05/14 06:09:46;;;;;;;11.80;3.53;;;;;;;;;;4928168;28;20040;-62
2021/05/14 06:12:12;;;;;;;10.20;3.63;;;;;;;;;;4926244;28;20111;-61
2021/05/14 06:14:37;;;;;;;8.23;3.67;;;;;;;;;;4930206;28;20605;-62
2021/05/14 06:17:11;;;;;;;12.00;4.10;;;;;;;;;;4928810;28;20171;-62
2021/05/14 06:19:44;;;;;;;12.70;4.05;;;;;;;;;;4929553;28;20075;-62
2021/05/14 06:22:12;;;;;;;6.82;3.25;;;;;;;;;;4930161;28;20046;-61
2021/05/14 06:24:42;;;;;;;7.78;2.40;;;;;;;;;;4927587;28;20214;-61
2021/05/14 06:27:10;;;;;;;8.52;2.47;;;;;;;;;;4924882;28;20027;-61
2021/05/14 06:29:36;;;;;;;6.65;2.35;;;;;;;;;;4928533;28;20115;-61
2021/05/14 06:32:02;;;;;;;8.63;2.67;;;;;;;;;;4943173;28;20036;-61
2021/05/14 06:34:27;;;;;;;6.60;1.92;;;;;;;;;;4916174;29;20722;-61
2021/05/14 06:36:55;;;;;;;12.85;2.53;;;;;;;;;;4927269;28;20036;-60
2021/05/14 06:39:21;;;;;;;9.52;2.17;;;;;;;;;;4925649;28;20038;-61
2021/05/14 06:41:48;;;;;;;8.75;2.40;;;;;;;;;;4924752;28;20039;-61
2021/05/14 06:44:13;;;;;;;14.68;3.35;;;;;;;;;;4944549;28;20039;-61
2021/05/14 06:46:43;;;;;;;7.60;2.75;;;;;;;;;;4927881;28;20035;-61
2021/05/14 06:49:08;;;;;;;5.68;2.35;;;;;;;;;;4926454;28;20066;-61
2021/05/14 06:51:34;;;;;;;14.45;2.97;;;;;;;;;;4928231;28;20099;-61
2021/05/14 06:54:01;;;;;;;9.35;2.65;;;;;;;;;;4928900;28;20041;-61
2021/05/14 06:56:30;;;;;;;7.97;2.25;;;;;;;;;;4928163;28;20031;-62
2021/05/14 06:58:56;;;;;;;9.15;2.13;;;;;;;;;;4932337;28;20028;-62
2021/05/14 07:01:22;;;;;;;9.65;2.60;;;;;;;;;;4932257;28;20041;-61
2021/05/14 07:03:50;;;;;;;14.45;2.83;;;;;;;;;;4930759;28;20051;-61
2021/05/14 07:06:18;;;;;;;14.35;2.90;;;;;;;;;;4926145;28;20054;-61
2021/05/14 07:08:45;;;;;;;11.95;3.08;;;;;;;;;;4944328;28;20031;-62
2021/05/14 07:11:11;;;;;;;13.35;2.70;;;;;;;;;;4922829;28;20117;-63
2021/05/14 07:13:46;;;;;;;8.80;2.92;;;;;;;;;;4935657;28;20035;-63
2021/05/14 07:16:11;;;;;;;7.85;2.75;;;;;;;;;;4922297;28;20070;-62
2021/05/14 07:18:37;;;;;;;8.10;2.58;;;;;;;;;;4928947;28;20118;-62
2021/05/14 07:21:05;;;;;;;7.20;2.08;;;;;;;;;;4922865;28;20039;-60
2021/05/14 07:23:49;;;;;;;7.82;2.58;;;;;;;;;;4919412;28;20650;-62
2021/05/14 07:26:17;;;;;;;6.30;2.42;;;;;;;;;;4915279;28;20039;-61
2021/05/14 07:28:45;;;;;;;6.35;2.40;;;;;;;;;;4922375;28;20129;-61
2021/05/14 07:31:11;;;;;;;11.45;2.70;;;;;;;;;;4918133;28;20934;-61
2021/05/14 07:33:39;;;;;;;8.85;2.28;;;;;;;;;;4920764;28;20074;-63
2021/05/14 07:36:07;;;;;;;11.50;3.25;;;;;;;;;;4922410;28;20023;-61
2021/05/14 07:38:36;;;;;;;7.35;3.53;;;;;;;;;;4919830;28;20043;-64
2021/05/14 07:41:04;;;;;;;7.57;3.50;;;;;;;;;;4918400;28;20050;-62
2021/05/14 07:43:32;;;;;;;11.25;3.47;;;;;;;;;;4907860;28;20039;-62
2021/05/14 07:45:58;;;;;;;10.57;3.30;;;;;;;;;;4934163;28;20605;-61
2021/05/14 07:48:26;;;;;;;6.20;3.22;;;;;;;;;;4928404;28;20122;-62
2021/05/14 07:50:51;;;;;;;7.03;3.20;;;;;;;;;;4942972;28;20126;-63
2021/05/14 07:53:17;;;;;;;11.23;3.20;;;;;;;;;;4928358;28;20035;-60
2021/05/14 07:55:43;;;;;;;7.63;3.33;;;;;;;;;;4938980;28;20122;-63
2021/05/14 07:58:10;;;;;;;7.82;2.70;;;;;;;;;;4929409;28;20094;-62
2021/05/14 08:00:36;;;;;;;11.43;2.92;;;;;;;;;;4901028;29;20975;-62
2021/05/14 08:03:01;;;;;;;5.90;1.92;;;;;;;;;;4930449;28;20183;-62
2021/05/14 08:05:28;;;;;;;7.90;1.77;;;;;;;;;;4929326;28;20054;-63
2021/05/14 08:07:59;;;;;;;9.60;2.13;;;;;;;;;;4919848;29;20031;-63
2021/05/14 08:10:28;;;;;;;6.15;2.10;;;;;;;;;;4928655;28;20035;-62
2021/05/14 08:12:56;;;;;;;10.32;2.72;;;;;;;;;;4931127;28;20060;-62
2021/05/14 08:15:22;;;;;;;9.30;2.35;;;;;;;;;;4913557;28;20158;-61
2021/05/14 08:17:52;;;;;;;10.93;2.17;;;;;;;;;;4928971;28;20023;-62
2021/05/14 08:20:19;;;;;;;6.90;2.15;;;;;;;;;;4927942;28;20031;-62
2021/05/14 08:22:48;;;;;;;6.70;2.33;;;;;;;;;;4928228;28;20035;-62
2021/05/14 08:25:14;;;;;;;6.05;2.17;;;;;;;;;;4922384;28;20043;-63
2021/05/14 08:27:39;;;;;;;10.85;3.05;;;;;;;;;;4939639;28;20028;-62
2021/05/14 08:30:05;;;;;;;7.60;2.33;;;;;;;;;;4918024;28;20031;-61
2021/05/14 08:32:31;;;;;;;8.13;2.45;;;;;;;;;;4919726;28;20038;-62
2021/05/14 08:34:59;;;;;;;6.22;2.13;;;;;;;;;;4914614;29;20051;-63
2021/05/14 08:37:25;;;;;;;9.30;2.33;;;;;;;;;;4930874;28;20027;-61
2021/05/14 08:39:51;;;;;;;5.25;2.22;;;;;;;;;;4927793;28;20498;-63
2021/05/14 08:42:19;;;;;;;8.65;2.45;;;;;;;;;;4924155;28;22174;-62
2021/05/14 08:44:45;;;;;;;10.10;2.22;;;;;;;;;;4931210;28;20032;-63
2021/05/14 08:47:12;;;;;;;4.30;2.25;;;;;;;;;;4925991;28;20083;-62
2021/05/14 08:49:37;;;;;;;6.63;2.30;;;;;;;;;;4944337;28;20443;-62
2021/05/14 08:52:07;;;;;;;6.75;2.08;;;;;;;;;;4930051;28;20050;-63
2021/05/14 08:54:34;;;;;;;6.18;2.47;;;;;;;;;;4947728;28;20078;-62
2021/05/14 08:57:00;;;;;;;7.32;2.05;;;;;;;;;;4930634;28;20070;-63
2021/05/14 08:59:26;;;;;;;6.10;2.38;;;;;;;;;;4933474;28;20130;-63
2021/05/14 09:01:54;;;;;;;8.82;2.17;;;;;;;;;;4924939;28;20664;-62
2021/05/14 09:04:19;;;;;;;7.65;2.15;;;;;;;;;;4939427;28;20986;-62
2021/05/14 09:06:45;;;;;;;9.82;2.60;;;;;;;;;;4913817;28;20133;-62
2021/05/14 09:09:12;;;;;;;5.75;2.47;;;;;;;;;;4911266;28;20028;-61
2021/05/14 09:11:48;;;;;;;6.68;2.47;;;;;;;;;;4924791;28;20035;-62
2021/05/14 09:14:31;;;;;;;13.45;2.47;;;;;;;;;;4929472;28;20039;-62
2021/05/14 09:17:05;;;;;;;9.93;2.30;;;;;;;;;;4925177;28;20411;-62
2021/05/14 09:19:31;;;;;;;9.20;2.13;;;;;;;;;;4928325;28;20158;-62
2021/05/14 09:22:09;;;;;;;8.63;1.75;;;;;;;;;;4926816;28;20035;-63
2021/05/14 09:24:36;;;;;;;3.50;1.92;;;;;;;;;;4941640;28;20035;-65
2021/05/14 09:27:21;;;;;;;6.07;1.67;;;;;;;;;;4926572;28;20031;-62
2021/05/14 09:29:46;;;;;;;6.47;2.40;;;;;;;;;;4926408;28;20051;-63
2021/05/14 09:32:19;;;;;;;6.07;1.98;;;;;;;;;;4925183;28;20298;-62
2021/05/14 09:34:48;;;;;;;7.35;1.88;;;;;;;;;;4922097;28;20063;-63
2021/05/14 09:37:15;;;;;;;9.05;1.73;;;;;;;;;;4926229;28;20031;-62
2021/05/14 09:39:43;;;;;;;10.90;1.90;;;;;;;;;;4928102;28;20047;-63
2021/05/14 09:42:11;;;;;;;8.25;2.05;;;;;;;;;;4932333;28;20094;-62
2021/05/14 09:44:39;;;;;;;6.93;2.28;;;;;;;;;;4933859;28;20094;-63
2021/05/14 09:47:05;;;;;;;5.05;1.92;;;;;;;;;;4929946;28;20082;-62
2021/05/14 09:49:33;;;;;;;9.07;1.85;;;;;;;;;;4925973;28;20694;-62
2021/05/14 09:52:03;;;;;;;10.85;2.10;;;;;;;;;;4927907;28;21902;-63
2021/05/14 09:54:36;;;;;;;3.92;2.42;;;;;;;;;;4927477;28;20027;-64
2021/05/14 09:57:14;;;;;;;6.25;2.15;;;;;;;;;;4926646;28;20062;-63
2021/05/14 09:59:40;;;;;;;11.02;2.78;;;;;;;;;;4929413;28;20066;-63
2021/05/14 10:02:48;;;;;;;5.90;2.38;;;;;;;;;;4928941;28;20038;-63
2021/05/14 10:05:14;;;;;;;10.32;2.17;;;;;;;;;;4914989;29;20039;-63
2021/05/14 10:07:41;;;;;;;9.68;2.38;;;;;;;;;;4915077;29;20661;-64
2021/05/14 10:10:13;;;;;;;9.60;1.90;;;;;;;;;;4920069;29;20649;-62
2021/05/14 10:12:39;;;;;;;4.00;1.52;;;;;;;;;;4917112;29;20094;-63
2021/05/14 10:15:09;;;;;;;7.60;1.75;;;;;;;;;;4933933;28;20019;-63
2021/05/14 10:17:36;;;;;;;11.13;1.88;;;;;;;;;;4933390;28;20054;-63
2021/05/14 10:20:05;;;;;;;7.55;1.83;;;;;;;;;;4944082;28;20053;-63
2021/05/14 10:22:34;;;;;;;9.93;1.95;;;;;;;;;;4930848;28;20718;-63
2021/05/14 10:25:02;;;;;;;8.82;2.03;;;;;;;;;;4929912;28;20028;-63
2021/05/14 10:27:28;;;;;;;7.63;2.05;;;;;;;;;;4917787;29;20142;-62
2021/05/14 10:29:58;;;;;;;4.13;1.60;;;;;;;;;;4927988;28;20091;-63
2021/05/14 10:32:42;;;;;;;5.18;1.75;;;;;;;;;;4929888;28;20152;-64
2021/05/14 10:35:11;;;;;;;5.55;1.40;;;;;;;;;;4929219;28;20093;-64
2021/05/14 10:37:50;;;;;;;3.50;1.98;;;;;;;;;;4931977;28;20047;-63
2021/05/14 10:40:32;;;;;;;4.78;1.77;;;;;;;;;;4930092;28;20142;-62
2021/05/14 10:43:05;;;;;;;5.97;1.85;;;;;;;;;;4930039;28;20112;-62
2021/05/14 10:45:37;;;;;;;8.23;2.10;;;;;;;;;;4919807;29;20035;-62
2021/05/14 10:50:44;;;;;;;5.28;1.90;;;;;;;;;;4929476;28;20035;-62
2021/05/14 10:53:16;;;;;;;4.43;1.95;;;;;;;;;;4928381;28;20038;-63
2021/05/14 10:55:48;;;;;;;7.18;2.00;;;;;;;;;;4928423;28;20671;-63
2021/05/14 10:58:33;;;;;;;8.43;2.08;;;;;;;;;;4925507;28;20047;-62
2021/05/14 11:00:59;;;;;;;5.65;1.88;;;;;;;;;;4925446;28;20653;-63
2021/05/14 11:03:31;;;;;;;9.77;1.92;;;;;;;;;;4940777;28;20091;-63
2021/05/14 11:06:09;;;;;;;9.98;1.98;;;;;;;;;;4915783;28;20027;-63
2021/05/14 11:08:38;;;;;;;3.60;1.42;;;;;;;;;;4929337;28;20114;-63
2021/05/14 11:11:09;;;;;;;5.22;1.92;;;;;;;;;;4926319;28;20039;-63
2021/05/14 11:13:40;;;;;;;6.13;2.22;;;;;;;;;;4929962;28;20035;-64
2021/05/14 11:16:24;;;;;;;4.68;1.75;;;;;;;;;;4912328;28;20675;-63
2021/05/14 11:18:53;;;;;;;8.55;2.03;;;;;;;;;;4928817;28;20035;-64
2021/05/14 11:21:19;;;;;;;3.80;1.70;;;;;;;;;;4926487;28;20902;-62
2021/05/14 11:23:47;;;;;;;7.20;2.00;;;;;;;;;;4928654;28;20039;-63
2021/05/14 11:26:18;;;;;;;2.78;1.65;;;;;;;;;;4929169;28;21581;-63
2021/05/14 11:28:44;;;;;;;5.25;1.60;;;;;;;;;;4930403;28;20118;-64
2021/05/14 11:31:16;;;;;;;3.38;1.83;;;;;;;;;;4925272;28;20938;-63
2021/05/14 11:33:42;;;;;;;8.35;2.15;;;;;;;;;;4907706;28;20055;-63
2021/05/14 11:36:08;;;;;;;7.00;2.20;;;;;;;;;;4928407;28;20055;-63
2021/05/14 11:38:34;;;;;;;5.15;1.73;;;;;;;;;;4932999;28;20125;-63
2021/05/14 11:41:03;;;;;;;4.22;1.95;;;;;;;;;;4909721;29;20114;-63
2021/05/14 11:43:29;;;;;;;7.15;2.53;;;;;;;;;;4929661;28;20166;-63
2021/05/14 11:45:57;;;;;;;7.97;2.03;;;;;;;;;;4942760;28;20131;-63
2021/05/14 11:48:32;;;;;;;5.95;2.00;;;;;;;;;;4928701;28;20031;-63
2021/05/14 11:51:01;;;;;;;7.20;2.33;;;;;;;;;;4924308;28;20047;-63
2021/05/14 11:53:31;;;;;;;12.00;2.05;;;;;;;;;;4916646;28;20039;-64
2021/05/14 11:55:56;;;;;;;6.63;2.30;;;;;;;;;;4927266;28;20038;-63
2021/05/14 11:58:25;;;;;;;6.10;2.30;;;;;;;;;;4930413;28;20039;-63
2021/05/14 12:00:54;;;;;;;7.10;2.28;;;;;;;;;;4924324;28;20609;-62
2021/05/14 12:03:22;;;;;;;6.82;2.03;;;;;;;;;;4927722;28;20027;-63
2021/05/14 12:05:48;;;;;;;6.80;2.60;;;;;;;;;;4928733;28;21069;-65
2021/05/14 12:08:24;;;;;;;8.23;1.90;;;;;;;;;;4912543;29;20106;-64
2021/05/14 12:10:56;;;;;;;5.32;1.90;;;;;;;;;;4937686;28;20043;-61
2021/05/14 12:13:42;;;;;;;6.35;2.20;;;;;;;;;;4927525;28;20073;-62
2021/05/14 12:16:14;;;;;;;5.75;1.80;;;;;;;;;;4939765;28;20472;-62
2021/05/14 12:18:53;;;;;;;9.65;2.20;;;;;;;;;;4927768;29;20152;-60
2021/05/14 12:21:23;;;;;;;5.38;2.42;;;;;;;;;;4928032;28;20039;-61
2021/05/14 12:23:49;;;;;;;6.95;2.20;;;;;;;;;;4909894;28;20027;-64
2021/05/14 12:26:17;;;;;;;9.20;2.28;;;;;;;;;;4925306;28;20032;-63
2021/05/14 12:28:46;;;;;;;8.95;3.22;;;;;;;;;;4928559;28;20019;-62
2021/05/14 12:31:15;;;;;;;7.32;2.25;;;;;;;;;;4925885;28;20062;-62
2021/05/14 12:33:51;;;;;;;10.73;2.53;;;;;;;;;;4925298;28;20123;-63
2021/05/14 12:36:36;;;;;;;6.05;2.63;;;;;;;;;;4931893;28;21638;-62
2021/05/14 12:39:06;;;;;;;5.00;2.30;;;;;;;;;;4928251;28;20031;-64
2021/05/14 12:41:34;;;;;;;5.68;2.85;;;;;;;;;;4942119;28;20035;-63
2021/05/14 12:44:11;;;;;;;6.03;2.10;;;;;;;;;;4941642;28;20043;-62
2021/05/14 12:47:00;;;;;;;7.25;2.25;;;;;;;;;;4924955;28;21915;-62
2021/05/14 12:49:27;;;;;;;8.70;2.55;;;;;;;;;;4926924;28;20028;-63
2021/05/14 12:52:00;;;;;;;7.95;2.53;;;;;;;;;;4914248;28;20162;-62
2021/05/14 12:54:34;;;;;;;6.45;2.63;;;;;;;;;;4941497;28;20083;-63
2021/05/14 12:57:06;;;;;;;4.78;1.88;;;;;;;;;;4908012;28;20189;-63
2021/05/14 12:59:35;;;;;;;6.53;2.33;;;;;;;;;;4924196;28;20094;-64
2021/05/14 13:02:05;;;;;;;6.63;2.50;;;;;;;;;;4928074;28;20419;-63
2021/05/14 13:04:31;;;;;;;7.75;2.90;;;;;;;;;;4929864;28;20036;-63
2021/05/14 13:07:07;;;;;;;5.38;2.30;;;;;;;;;;4928186;28;20027;-62
2021/05/14 13:09:33;;;;;;;10.05;2.40;;;;;;;;;;4911297;29;20082;-63
2021/05/14 13:12:01;;;;;;;7.75;2.65;;;;;;;;;;4925138;28;22262;-62
2021/05/14 13:14:29;;;;;;;5.28;2.80;;;;;;;;;;4927998;28;20032;-66
2021/05/14 13:16:55;;;;;;;4.47;2.22;;;;;;;;;;4926387;28;20036;-64
2021/05/14 13:19:23;;;;;;;4.57;2.47;;;;;;;;;;4911862;29;20088;-62
2021/05/14 13:21:52;;;;;;;8.95;2.60;;;;;;;;;;4927625;28;20114;-64
2021/05/14 13:24:19;;;;;;;6.72;2.65;;;;;;;;;;4929655;28;20035;-65
2021/05/14 13:26:45;;;;;;;8.35;3.25;;;;;;;;;;4927592;28;20035;-64
2021/05/14 13:29:11;;;;;;;7.00;2.22;;;;;;;;;;4927783;28;20443;-63
2021/05/14 13:31:37;;;;;;;5.53;2.25;;;;;;;;;;4927444;28;20106;-63
2021/05/14 13:34:02;;;;;;;7.97;2.67;;;;;;;;;;4928648;28;21032;-65
2021/05/14 13:36:28;;;;;;;7.07;2.47;;;;;;;;;;4914348;29;20039;-62
2021/05/14 13:38:54;;;;;;;9.20;2.35;;;;;;;;;;4918100;28;20081;-64
2021/05/14 13:41:19;;;;;;;11.02;2.75;;;;;;;;;;4928460;28;20031;-63
2021/05/14 13:43:45;;;;;;;8.85;2.70;;;;;;;;;;4929638;28;20039;-65
2021/05/14 13:46:11;;;;;;;7.55;2.75;;;;;;;;;;4940268;28;20023;-61
2021/05/14 13:48:37;;;;;;;7.32;3.28;;;;;;;;;;4930438;28;20032;-63
2021/05/14 13:51:05;;;;;;;11.48;2.90;;;;;;;;;;4928446;28;22333;-62
2021/05/14 13:53:31;;;;;;;8.15;3.22;;;;;;;;;;4930577;28;20031;-61
2021/05/14 13:55:57;;;;;;;7.32;3.40;;;;;;;;;;4926496;28;20073;-60
2021/05/14 13:58:23;;;;;;;7.40;2.85;;;;;;;;;;4915627;28;20090;-64
2021/05/14 14:00:52;;;;;;;7.18;3.63;;;;;;;;;;4929095;28;20023;-62
2021/05/14 14:03:18;;;;;;;9.43;3.72;;;;;;;;;;4928504;28;20035;-62
2021/05/14 14:05:46;;;;;;;5.75;2.88;;;;;;;;;;4926918;28;20024;-62
2021/05/14 14:08:13;;;;;;;4.38;3.08;;;;;;;;;;4925988;28;20039;-61
2021/05/14 14:10:48;;;;;;;9.27;3.50;;;;;;;;;;4924724;28;20042;-63
2021/05/14 14:13:14;;;;;;;5.82;2.90;;;;;;;;;;4928673;28;20035;-63
2021/05/14 14:15:40;;;;;;;8.10;3.13;;;;;;;;;;4926504;28;20090;-62
2021/05/14 14:18:08;;;;;;;7.78;3.70;;;;;;;;;;4942610;28;20433;-62
2021/05/14 14:20:37;;;;;;;7.78;3.55;;;;;;;;;;4925503;28;20023;-62
2021/05/14 14:23:03;;;;;;;10.93;3.72;;;;;;;;;;4927717;28;20090;-62
2021/05/14 14:25:28;;;;;;;15.20;4.25;;;;;;;;;;4942909;28;20088;-63
2021/05/14 14:27:54;;;;;;;6.45;3.33;;;;;;;;;;4928659;28;20024;-62
2021/05/14 14:30:23;;;;;;;11.38;3.95;;;;;;;;;;4914420;29;20043;-63
2021/05/14 14:32:53;;;;;;;12.60;3.78;;;;;;;;;;4928314;28;20035;-61
2021/05/14 14:35:18;;;;;;;7.90;3.38;;;;;;;;;;4914819;28;20047;-62
2021/05/14 14:37:44;;;;;;;11.43;3.53;;;;;;;;;;4915791;29;20038;-61
2021/05/14 14:40:11;;;;;;;9.55;3.58;;;;;;;;;;4925577;28;20066;-62
2021/05/14 14:42:41;;;;;;;9.13;3.60;;;;;;;;;;4914905;28;20027;-62
2021/05/14 14:45:10;;;;;;;10.05;3.42;;;;;;;;;;4922694;28;20066;-62
2021/05/14 14:47:35;;;;;;;8.25;3.28;;;;;;;;;;4925227;28;20036;-62
2021/05/14 14:50:01;;;;;;;9.85;2.90;;;;;;;;;;4927717;28;20106;-62
2021/05/14 14:52:26;;;;;;;9.10;3.53;;;;;;;;;;4928516;28;20031;-63
2021/05/14 14:54:52;;;;;;;7.97;3.50;;;;;;;;;;4927997;28;20043;-62